createdAt,value
2023-05-19T00:00:58.333Z,34.03
2023-05-19T00:02:01.287Z,34.30
2023-05-19T00:03:05.484Z,34.15
2023-05-19T00:04:08.686Z,34.16
2023-05-19T00:05:15.600Z,34.14
2023-05-19T00:06:19.835Z,34.45
2023-05-19T00:07:29.345Z,34.37
2023-05-19T00:08:33.027Z,34.67
2023-05-19T00:09:35.928Z,34.56
2023-05-19T00:10:39.613Z,34.85
2023-05-19T00:11:42.534Z,34.69
2023-05-19T00:12:46.021Z,34.64
2023-05-19T00:13:50.214Z,35.15
2023-05-19T00:14:53.072Z,35.12
2023-05-19T00:15:56.066Z,35.42
2023-05-19T00:16:59.080Z,35.12
2023-05-19T00:18:02.585Z,34.83
2023-05-19T00:19:06.286Z,35.17
2023-05-19T00:20:09.803Z,35.33
2023-05-19T00:21:12.305Z,35.04
2023-05-19T00:22:15.610Z,35.26
2023-05-19T00:23:18.271Z,35.04
2023-05-19T00:24:21.005Z,35.34
2023-05-19T00:25:23.762Z,35.49
2023-05-19T00:26:27.724Z,35.28
2023-05-19T00:27:30.345Z,35.52
2023-05-19T00:28:33.069Z,35.71
2023-05-19T00:29:35.848Z,35.46
2023-05-19T00:30:38.491Z,35.54
2023-05-19T00:31:41.161Z,35.39
2023-05-19T00:32:43.873Z,35.76
2023-05-19T00:33:46.742Z,35.79
2023-05-19T00:34:50.052Z,35.63
2023-05-19T00:35:52.708Z,35.35
2023-05-19T00:36:55.353Z,36.00
2023-05-19T00:37:58.003Z,35.71
2023-05-19T00:39:00.700Z,35.87
2023-05-19T00:40:03.424Z,36.03
2023-05-19T00:41:07.396Z,35.51
2023-05-19T00:42:10.449Z,35.69
2023-05-19T00:43:13.397Z,35.71
2023-05-19T00:44:16.202Z,36.17
2023-05-19T00:45:19.000Z,36.18
2023-05-19T00:46:23.502Z,35.95
2023-05-19T00:47:26.210Z,36.10
2023-05-19T00:48:29.418Z,35.94
2023-05-19T00:49:32.050Z,35.86
2023-05-19T00:50:35.019Z,35.97
2023-05-19T00:51:37.962Z,35.98
2023-05-19T00:52:40.655Z,36.43
2023-05-19T00:53:48.894Z,36.39
2023-05-19T00:54:53.101Z,36.79
2023-05-19T00:55:55.847Z,36.81
2023-05-19T00:57:00.048Z,36.66
2023-05-19T00:58:02.833Z,37.64
2023-05-19T00:59:06.262Z,37.75
2023-05-19T01:00:09.604Z,37.99
2023-05-19T01:01:17.666Z,38.32
2023-05-19T01:02:21.320Z,37.83
2023-05-19T01:03:24.428Z,37.53
2023-05-19T01:04:27.474Z,37.58
2023-05-19T01:05:30.203Z,38.24
2023-05-19T01:06:33.164Z,38.61
2023-05-19T01:07:37.381Z,38.62
2023-05-19T01:08:40.756Z,38.82
2023-05-19T01:09:43.657Z,39.21
2023-05-19T01:10:46.333Z,39.24
2023-05-19T01:11:49.909Z,38.90
2023-05-19T01:12:52.319Z,39.13
2023-05-19T01:13:55.395Z,39.49
2023-05-19T01:15:00.280Z,39.86
2023-05-19T01:16:13.865Z,40.36
2023-05-19T01:17:25.431Z,40.21
2023-05-19T01:19:02.243Z,40.42
2023-05-19T01:20:18.888Z,41.25
2023-05-19T01:21:53.883Z,41.98
2023-05-19T01:23:15.508Z,41.50
2023-05-19T01:24:42.711Z,41.25
2023-05-19T01:25:54.100Z,40.75
2023-05-19T01:27:24.102Z,41.04
2023-05-19T01:28:58.410Z,40.64
2023-05-19T01:30:26.058Z,40.94
2023-05-19T01:31:29.672Z,41.04
2023-05-19T01:32:35.400Z,41.41
2023-05-19T01:33:40.410Z,41.31
2023-05-19T01:34:44.929Z,41.84
2023-05-19T01:35:49.532Z,41.40
2023-05-19T01:36:54.677Z,41.94
2023-05-19T01:38:00.331Z,42.68
2023-05-19T01:39:03.772Z,43.09
2023-05-19T01:40:08.555Z,43.37
2023-05-19T01:41:12.929Z,43.49
2023-05-19T01:42:17.345Z,43.02
2023-05-19T01:43:23.011Z,43.31
2023-05-19T01:44:26.093Z,43.32
2023-05-19T01:45:30.660Z,43.31
2023-05-19T01:46:33.636Z,42.88
2023-05-19T01:47:41.024Z,42.94
2023-05-19T01:48:45.333Z,43.06
2023-05-19T01:49:48.055Z,43.25
2023-05-19T01:50:50.974Z,43.26
2023-05-19T01:51:55.197Z,43.49
2023-05-19T01:52:58.210Z,43.62
2023-05-19T01:54:01.080Z,43.25
2023-05-19T01:55:03.875Z,43.30
2023-05-19T01:56:07.577Z,43.01
2023-05-19T01:57:32.895Z,42.86
2023-05-19T01:59:10.211Z,42.80
2023-05-19T02:00:43.547Z,43.29
2023-05-19T02:01:54.552Z,43.05
2023-05-19T02:02:57.224Z,43.12
2023-05-19T02:04:16.998Z,43.20
2023-05-19T02:05:32.239Z,43.14
2023-05-19T02:06:46.855Z,43.07
2023-05-19T02:08:03.235Z,43.02
2023-05-19T02:09:26.261Z,43.08
2023-05-19T02:10:33.944Z,43.08
2023-05-19T02:11:40.849Z,43.47
2023-05-19T02:12:45.350Z,43.68
2023-05-19T02:13:51.924Z,43.66
2023-05-19T02:15:19.539Z,44.09
2023-05-19T02:16:27.984Z,43.92
2023-05-19T02:17:36.765Z,44.20
2023-05-19T02:18:45.879Z,43.89
2023-05-19T02:19:48.756Z,43.87
2023-05-19T02:20:51.588Z,44.10
2023-05-19T02:21:54.323Z,43.87
2023-05-19T02:22:57.304Z,44.24
2023-05-19T02:24:00.011Z,43.87
2023-05-19T02:25:02.929Z,43.98
2023-05-19T02:26:05.889Z,43.87
2023-05-19T02:27:08.544Z,43.85
2023-05-19T02:28:11.199Z,44.06
2023-05-19T02:29:13.857Z,44.26
2023-05-19T02:30:16.672Z,44.73
2023-05-19T02:31:19.384Z,45.34
2023-05-19T02:32:22.487Z,45.11
2023-05-19T02:33:26.654Z,44.35
2023-05-19T02:34:29.347Z,44.21
2023-05-19T02:35:32.040Z,43.71
2023-05-19T02:36:37.128Z,43.14
2023-05-19T02:37:40.259Z,43.57
2023-05-19T02:38:42.917Z,44.17
2023-05-19T02:39:45.838Z,44.44
2023-05-19T02:40:48.516Z,44.82
2023-05-19T02:41:51.269Z,45.02
2023-05-19T02:42:54.264Z,45.11
2023-05-19T02:43:57.130Z,45.32
2023-05-19T02:45:01.165Z,45.02
2023-05-19T02:46:03.920Z,44.95
2023-05-19T02:47:06.769Z,45.68
2023-05-19T02:48:09.493Z,44.88
2023-05-19T02:49:12.240Z,45.31
2023-05-19T02:50:14.939Z,45.08
2023-05-19T02:51:17.652Z,45.02
2023-05-19T02:52:20.340Z,44.70
2023-05-19T02:53:22.974Z,44.05
2023-05-19T02:54:25.671Z,44.20
2023-05-19T02:55:28.347Z,44.65
2023-05-19T02:56:31.060Z,45.19
2023-05-19T02:57:35.616Z,45.79
2023-05-19T02:58:38.671Z,46.14
2023-05-19T02:59:41.612Z,46.42
2023-05-19T03:00:45.714Z,46.88
2023-05-19T03:01:48.538Z,46.70
2023-05-19T03:02:53.467Z,46.54
2023-05-19T03:03:56.276Z,46.26
2023-05-19T03:04:59.000Z,46.45
2023-05-19T03:06:02.434Z,46.07
2023-05-19T03:07:06.745Z,46.09
2023-05-19T03:08:09.838Z,45.36
2023-05-19T03:09:12.493Z,45.08
2023-05-19T03:10:15.160Z,45.74
2023-05-19T03:11:18.249Z,46.03
2023-05-19T03:12:21.304Z,45.54
2023-05-19T03:13:23.950Z,45.62
2023-05-19T03:14:26.582Z,45.31
2023-05-19T03:15:29.246Z,45.74
2023-05-19T03:16:32.082Z,45.42
2023-05-19T03:17:34.991Z,44.77
2023-05-19T03:18:37.895Z,44.58
2023-05-19T03:19:40.640Z,45.08
2023-05-19T03:20:45.143Z,45.40
2023-05-19T03:21:48.107Z,44.80
2023-05-19T03:22:51.193Z,44.93
2023-05-19T03:23:55.202Z,44.94
2023-05-19T03:24:59.036Z,45.21
2023-05-19T03:26:01.857Z,45.67
2023-05-19T03:27:08.327Z,45.50
2023-05-19T03:28:11.216Z,45.98
2023-05-19T03:29:13.856Z,46.38
2023-05-19T03:30:16.629Z,46.58
2023-05-19T03:31:19.410Z,47.15
2023-05-19T03:32:22.151Z,46.51
2023-05-19T03:33:25.047Z,46.14
2023-05-19T03:34:27.785Z,46.26
2023-05-19T03:35:30.473Z,46.25
2023-05-19T03:36:33.147Z,46.69
2023-05-19T03:37:35.819Z,46.43
2023-05-19T03:38:38.559Z,46.28
2023-05-19T03:39:41.260Z,45.89
2023-05-19T03:40:44.570Z,46.59
2023-05-19T03:41:47.317Z,46.48
2023-05-19T03:42:49.968Z,46.38
2023-05-19T03:43:52.644Z,46.41
2023-05-19T03:44:55.285Z,46.80
2023-05-19T03:45:58.521Z,46.61
2023-05-19T03:47:01.416Z,46.76
2023-05-19T03:48:04.410Z,47.04
2023-05-19T03:49:07.169Z,47.41
2023-05-19T03:50:10.414Z,47.82
2023-05-19T03:51:13.147Z,47.51
2023-05-19T03:52:16.239Z,47.52
2023-05-19T03:53:18.930Z,48.12
2023-05-19T03:54:23.062Z,47.83
2023-05-19T03:55:26.300Z,48.02
2023-05-19T03:56:29.545Z,48.30
2023-05-19T03:57:32.756Z,47.53
2023-05-19T03:58:37.533Z,47.35
2023-05-19T03:59:41.841Z,48.15
2023-05-19T04:00:44.485Z,48.57
2023-05-19T04:01:47.122Z,48.24
2023-05-19T04:02:49.929Z,48.29
2023-05-19T04:03:52.709Z,47.76
2023-05-19T04:04:55.369Z,48.10
2023-05-19T04:05:58.081Z,47.71
2023-05-19T04:07:00.745Z,47.67
2023-05-19T04:08:03.443Z,47.75
2023-05-19T04:09:14.065Z,47.33
2023-05-19T04:10:16.817Z,47.60
2023-05-19T04:11:20.622Z,49.15
2023-05-19T04:12:23.268Z,49.33
2023-05-19T04:13:26.171Z,48.15
2023-05-19T04:14:29.039Z,48.38
2023-05-19T04:15:31.815Z,47.93
2023-05-19T04:16:34.882Z,47.91
2023-05-19T04:17:37.740Z,48.04
2023-05-19T04:18:40.444Z,47.89
2023-05-19T04:19:43.112Z,47.96
2023-05-19T04:20:45.854Z,47.82
2023-05-19T04:21:48.570Z,47.55
2023-05-19T04:22:51.300Z,47.58
2023-05-19T04:23:54.282Z,47.76
2023-05-19T04:24:56.962Z,47.78
2023-05-19T04:25:59.637Z,47.56
2023-05-19T04:27:04.051Z,47.47
2023-05-19T04:28:06.680Z,47.43
2023-05-19T04:29:11.153Z,47.56
2023-05-19T04:30:18.691Z,47.58
2023-05-19T04:31:22.204Z,47.53
2023-05-19T04:32:24.949Z,47.63
2023-05-19T04:33:29.719Z,47.20
2023-05-19T04:34:32.350Z,47.03
2023-05-19T04:35:35.137Z,47.17
2023-05-19T04:36:38.375Z,47.06
2023-05-19T04:37:41.070Z,47.57
2023-05-19T04:38:44.031Z,47.24
2023-05-19T04:39:46.955Z,47.80
2023-05-19T04:40:50.748Z,47.53
2023-05-19T04:41:55.666Z,47.75
2023-05-19T04:42:58.571Z,47.80
2023-05-19T04:44:01.643Z,47.65
2023-05-19T04:45:06.075Z,47.95
2023-05-19T04:46:13.429Z,47.53
2023-05-19T04:47:16.745Z,48.08
2023-05-19T04:48:19.808Z,48.01
2023-05-19T04:49:22.443Z,48.37
2023-05-19T04:50:25.773Z,49.05
2023-05-19T04:51:31.850Z,48.36
2023-05-19T04:52:34.893Z,48.42
2023-05-19T04:53:37.547Z,48.72
2023-05-19T04:54:40.759Z,49.10
2023-05-19T04:55:43.459Z,49.32
2023-05-19T04:56:46.245Z,49.37
2023-05-19T04:57:48.884Z,48.90
2023-05-19T04:58:51.630Z,49.31
2023-05-19T05:00:00.459Z,49.41
2023-05-19T05:01:03.132Z,49.30
2023-05-19T05:02:06.016Z,49.39
2023-05-19T05:03:08.801Z,49.72
2023-05-19T05:04:11.741Z,49.70
2023-05-19T05:05:14.499Z,49.38
2023-05-19T05:06:17.205Z,49.86
2023-05-19T05:07:19.887Z,49.62
2023-05-19T05:08:23.945Z,49.77
2023-05-19T05:09:26.805Z,49.89
2023-05-19T05:10:29.528Z,50.30
2023-05-19T05:11:32.404Z,50.33
2023-05-19T05:12:35.969Z,50.07
2023-05-19T05:13:38.891Z,50.05
2023-05-19T05:14:42.216Z,49.80
2023-05-19T05:15:45.191Z,50.36
2023-05-19T05:16:48.413Z,50.19
2023-05-19T05:17:51.736Z,49.89
2023-05-19T05:18:54.726Z,50.12
2023-05-19T05:19:57.694Z,50.17
2023-05-19T05:21:00.709Z,50.48
2023-05-19T05:22:03.935Z,50.51
2023-05-19T05:23:07.350Z,50.13
2023-05-19T05:24:10.916Z,50.51
2023-05-19T05:25:14.382Z,50.72
2023-05-19T05:26:25.305Z,50.52
2023-05-19T05:27:28.072Z,50.81
2023-05-19T05:28:31.958Z,50.92
2023-05-19T05:29:34.812Z,51.11
2023-05-19T05:30:37.515Z,50.76
2023-05-19T05:31:40.160Z,50.82
2023-05-19T05:32:43.070Z,50.67
2023-05-19T05:33:46.216Z,50.46
2023-05-19T05:34:48.904Z,51.18
2023-05-19T05:35:51.637Z,50.74
2023-05-19T05:36:54.291Z,50.76
2023-05-19T05:37:57.022Z,50.89
2023-05-19T05:39:00.131Z,51.81
2023-05-19T05:40:02.944Z,51.65
2023-05-19T05:41:05.726Z,50.95
2023-05-19T05:42:09.703Z,50.97
2023-05-19T05:43:12.334Z,50.96
2023-05-19T05:44:15.007Z,51.08
2023-05-19T05:45:17.743Z,50.74
2023-05-19T05:46:20.580Z,52.13
2023-05-19T05:47:23.523Z,53.09
2023-05-19T05:48:26.526Z,52.75
2023-05-19T05:49:29.484Z,52.55
2023-05-19T05:50:32.444Z,52.53
2023-05-19T05:51:35.422Z,51.63
2023-05-19T05:52:40.268Z,51.67
2023-05-19T05:53:45.059Z,51.25
2023-05-19T05:54:47.954Z,51.38
2023-05-19T05:55:51.593Z,51.82
2023-05-19T05:56:54.550Z,51.78
2023-05-19T05:57:57.539Z,51.58
2023-05-19T05:59:00.799Z,51.72
2023-05-19T06:00:06.426Z,51.85
2023-05-19T06:01:12.092Z,52.01
2023-05-19T06:02:14.847Z,52.01
2023-05-19T06:03:17.818Z,52.02
2023-05-19T06:04:21.574Z,52.08
2023-05-19T06:05:25.250Z,52.34
2023-05-19T06:06:27.709Z,52.43
2023-05-19T06:07:30.044Z,52.57
2023-05-19T06:08:32.837Z,52.56
2023-05-19T06:09:35.481Z,52.85
2023-05-19T06:10:39.497Z,52.72
2023-05-19T06:11:42.255Z,52.71
2023-05-19T06:12:44.911Z,52.93
2023-05-19T06:13:47.604Z,52.86
2023-05-19T06:14:50.283Z,53.02
2023-05-19T06:15:53.491Z,53.00
2023-05-19T06:16:56.328Z,53.38
2023-05-19T06:17:59.265Z,53.28
2023-05-19T06:19:02.106Z,53.66
2023-05-19T06:20:06.454Z,53.71
2023-05-19T06:21:10.809Z,53.65
2023-05-19T06:22:13.490Z,53.58
2023-05-19T06:23:16.202Z,53.81
2023-05-19T06:24:19.078Z,53.70
2023-05-19T06:25:21.714Z,53.62
2023-05-19T06:26:24.533Z,53.84
2023-05-19T06:27:27.258Z,54.04
2023-05-19T06:28:29.927Z,54.43
2023-05-19T06:29:32.628Z,54.24
2023-05-19T06:30:35.486Z,54.28
2023-05-19T06:31:38.281Z,54.63
2023-05-19T06:32:41.077Z,54.20
2023-05-19T06:33:43.849Z,54.37
2023-05-19T06:34:46.713Z,54.80
2023-05-19T06:35:49.442Z,54.70
2023-05-19T06:36:52.147Z,55.06
2023-05-19T06:37:56.327Z,55.31
2023-05-19T06:39:01.234Z,55.24
2023-05-19T06:40:06.274Z,55.38
2023-05-19T06:41:08.982Z,55.20
2023-05-19T06:42:11.645Z,55.49
2023-05-19T06:43:14.302Z,55.29
2023-05-19T06:44:17.120Z,55.35
2023-05-19T06:45:22.460Z,55.53
2023-05-19T06:46:25.263Z,55.61
2023-05-19T06:47:28.361Z,55.70
2023-05-19T06:48:31.318Z,55.84
2023-05-19T06:49:33.977Z,56.34
2023-05-19T06:50:36.732Z,56.28
2023-05-19T06:51:39.401Z,56.19
2023-05-19T06:52:42.131Z,56.04
2023-05-19T06:53:44.769Z,56.41
2023-05-19T06:54:47.436Z,56.03
2023-05-19T06:55:59.336Z,56.03
2023-05-19T06:57:02.768Z,56.00
2023-05-19T06:58:05.429Z,56.31
2023-05-19T06:59:08.086Z,56.32
2023-05-19T07:00:14.584Z,56.35
2023-05-19T07:01:19.778Z,56.28
2023-05-19T07:02:22.484Z,56.44
2023-05-19T07:03:25.242Z,56.44
2023-05-19T07:04:28.084Z,56.52
2023-05-19T07:05:30.720Z,56.56
2023-05-19T07:06:34.455Z,56.42
2023-05-19T07:07:36.817Z,56.42
2023-05-19T07:08:39.481Z,56.50
2023-05-19T07:09:42.193Z,56.61
2023-05-19T07:10:44.842Z,56.49
2023-05-19T07:11:47.531Z,56.17
2023-05-19T07:12:50.178Z,56.54
2023-05-19T07:13:52.809Z,56.70
2023-05-19T07:14:55.432Z,56.37
2023-05-19T07:15:58.141Z,56.46
2023-05-19T07:17:00.852Z,56.27
2023-05-19T07:18:03.589Z,56.28
2023-05-19T07:19:06.311Z,56.44
2023-05-19T07:20:12.684Z,56.25
2023-05-19T07:21:15.340Z,56.34
2023-05-19T07:22:18.094Z,56.39
2023-05-19T07:23:20.867Z,56.40
2023-05-19T07:24:23.729Z,56.42
2023-05-19T07:25:27.666Z,56.59
2023-05-19T07:26:30.529Z,56.26
2023-05-19T07:27:33.284Z,56.34
2023-05-19T07:28:36.206Z,56.25
2023-05-19T07:29:40.262Z,56.36
2023-05-19T07:30:43.028Z,56.55
2023-05-19T07:31:45.870Z,56.80
2023-05-19T07:32:48.635Z,56.49
2023-05-19T07:33:54.359Z,56.82
2023-05-19T07:34:57.335Z,56.80
2023-05-19T07:35:59.980Z,56.66
2023-05-19T07:37:05.182Z,56.74
2023-05-19T07:38:08.081Z,56.54
2023-05-19T07:39:11.371Z,56.69
2023-05-19T07:40:14.266Z,56.49
2023-05-19T07:41:16.916Z,56.87
2023-05-19T07:42:19.692Z,56.95
2023-05-19T07:43:22.391Z,56.71
2023-05-19T07:44:25.031Z,56.86
2023-05-19T07:45:27.719Z,56.46
2023-05-19T07:46:30.579Z,56.51
2023-05-19T07:47:33.448Z,56.40
2023-05-19T07:48:36.282Z,56.58
2023-05-19T07:49:38.914Z,56.42
2023-05-19T07:50:41.590Z,56.34
2023-05-19T07:51:44.349Z,56.41
2023-05-19T07:52:47.293Z,56.21
2023-05-19T07:53:49.998Z,56.17
2023-05-19T07:54:53.598Z,56.18
2023-05-19T07:55:58.398Z,56.32
2023-05-19T07:57:01.480Z,56.57
2023-05-19T07:58:04.121Z,56.23
2023-05-19T07:59:08.506Z,56.28
2023-05-19T08:00:13.042Z,56.02
2023-05-19T08:01:15.685Z,56.16
2023-05-19T08:02:18.428Z,56.32
2023-05-19T08:03:21.410Z,56.70
2023-05-19T08:04:24.239Z,56.46
2023-05-19T08:05:27.179Z,56.50
2023-05-19T08:06:30.629Z,56.82
2023-05-19T08:07:33.598Z,56.96
2023-05-19T08:08:36.236Z,57.14
2023-05-19T08:09:38.950Z,56.97
2023-05-19T08:10:41.558Z,57.18
2023-05-19T08:11:45.303Z,57.44
2023-05-19T08:12:47.997Z,57.23
2023-05-19T08:13:50.712Z,57.43
2023-05-19T08:14:53.426Z,57.59
2023-05-19T08:16:00.225Z,57.70
2023-05-19T08:17:03.022Z,57.64
2023-05-19T08:18:05.806Z,57.92
2023-05-19T08:19:09.040Z,57.95
2023-05-19T08:20:14.784Z,57.87
2023-05-19T08:21:17.450Z,58.32
2023-05-19T08:22:20.096Z,58.20
2023-05-19T08:23:23.138Z,58.39
2023-05-19T08:24:25.765Z,58.13
2023-05-19T08:25:28.511Z,58.19
2023-05-19T08:26:31.229Z,58.26
2023-05-19T08:27:34.056Z,58.20
2023-05-19T08:28:36.926Z,58.12
2023-05-19T08:29:39.550Z,58.29
2023-05-19T08:30:42.293Z,58.33
2023-05-19T08:31:45.031Z,58.35
2023-05-19T08:32:49.188Z,58.14
2023-05-19T08:33:51.954Z,58.43
2023-05-19T08:34:54.589Z,58.49
2023-05-19T08:35:58.696Z,58.59
2023-05-19T08:37:01.476Z,58.72
2023-05-19T08:38:04.151Z,58.97
2023-05-19T08:39:07.180Z,58.72
2023-05-19T08:40:16.764Z,58.56
2023-05-19T08:41:19.519Z,58.68
2023-05-19T08:42:22.176Z,58.49
2023-05-19T08:43:24.888Z,58.61
2023-05-19T08:44:27.683Z,58.42
2023-05-19T08:45:31.338Z,58.48
2023-05-19T08:46:34.376Z,58.67
2023-05-19T08:47:37.223Z,58.58
2023-05-19T08:48:43.726Z,58.63
2023-05-19T08:49:50.616Z,59.01
2023-05-19T08:51:10.793Z,58.85
2023-05-19T08:52:18.415Z,58.65
2023-05-19T08:53:33.811Z,58.99
2023-05-19T08:55:26.518Z,59.03
2023-05-19T08:56:29.261Z,59.21
2023-05-19T08:57:33.501Z,58.61
2023-05-19T08:58:36.562Z,59.14
2023-05-19T08:59:40.409Z,59.85
2023-05-19T09:00:44.861Z,59.46
2023-05-19T09:01:48.528Z,59.86
2023-05-19T09:03:01.030Z,59.41
2023-05-19T09:04:10.344Z,59.13
2023-05-19T09:05:13.323Z,60.23
2023-05-19T09:06:16.426Z,59.91
2023-05-19T09:07:20.554Z,60.00
2023-05-19T09:08:23.288Z,59.93
2023-05-19T09:09:26.174Z,59.29
2023-05-19T09:10:29.374Z,58.99
2023-05-19T09:11:32.044Z,59.46
2023-05-19T09:12:34.859Z,59.85
2023-05-19T09:13:37.771Z,59.18
2023-05-19T09:14:40.919Z,59.01
2023-05-19T09:15:46.259Z,59.07
2023-05-19T09:16:51.534Z,59.09
2023-05-19T09:18:08.612Z,58.90
2023-05-19T09:19:16.618Z,58.74
2023-05-19T09:20:19.366Z,58.67
2023-05-19T09:21:28.338Z,58.73
2023-05-19T09:22:31.087Z,59.09
2023-05-19T09:23:34.556Z,59.02
2023-05-19T09:24:38.428Z,58.83
2023-05-19T09:25:53.949Z,58.84
2023-05-19T09:26:59.241Z,58.75
2023-05-19T09:28:02.915Z,58.80
2023-05-19T09:29:16.616Z,59.20
2023-05-19T09:30:20.032Z,59.05
2023-05-19T09:31:23.072Z,59.65
2023-05-19T09:32:29.865Z,59.75
2023-05-19T09:33:35.398Z,59.36
2023-05-19T09:34:42.652Z,59.55
2023-05-19T09:35:48.487Z,59.67
2023-05-19T09:36:52.378Z,59.39
2023-05-19T09:37:55.929Z,59.54
2023-05-19T09:38:58.587Z,59.50
2023-05-19T09:40:01.388Z,59.69
2023-05-19T09:41:05.370Z,59.27
2023-05-19T09:42:08.110Z,59.43
2023-05-19T09:43:10.952Z,59.46
2023-05-19T09:44:30.344Z,60.45
2023-05-19T09:45:33.738Z,60.42
2023-05-19T09:46:37.348Z,59.89
2023-05-19T09:47:42.829Z,59.70
2023-05-19T09:48:45.520Z,59.80
2023-05-19T09:49:48.466Z,60.14
2023-05-19T09:50:52.377Z,59.88
2023-05-19T09:52:04.589Z,60.20
2023-05-19T09:53:07.759Z,60.11
2023-05-19T09:54:16.842Z,60.02
2023-05-19T09:55:23.570Z,60.15
2023-05-19T09:56:26.675Z,59.80
2023-05-19T09:57:36.531Z,60.10
2023-05-19T09:58:43.142Z,59.92
2023-05-19T09:59:46.588Z,60.09
2023-05-19T10:00:49.734Z,60.10
2023-05-19T10:01:56.558Z,60.01
2023-05-19T10:03:00.933Z,60.45
2023-05-19T10:04:06.027Z,59.86
2023-05-19T10:05:11.511Z,59.98
2023-05-19T10:06:16.252Z,59.81
2023-05-19T10:07:20.371Z,59.78
2023-05-19T10:08:24.638Z,59.54
2023-05-19T10:09:28.931Z,59.38
2023-05-19T10:10:31.872Z,59.66
2023-05-19T10:11:34.928Z,60.02
2023-05-19T10:12:39.954Z,60.09
2023-05-19T10:13:43.188Z,59.86
2023-05-19T10:14:46.242Z,59.76
2023-05-19T10:15:58.203Z,59.45
2023-05-19T10:17:01.853Z,60.33
2023-05-19T10:18:06.221Z,60.53
2023-05-19T10:19:11.104Z,60.09
2023-05-19T10:20:17.142Z,59.76
2023-05-19T10:21:19.822Z,59.82
2023-05-19T10:22:22.815Z,60.21
2023-05-19T10:23:25.762Z,60.15
2023-05-19T10:24:28.454Z,60.16
2023-05-19T10:25:34.306Z,60.17
2023-05-19T10:26:37.668Z,60.94
2023-05-19T10:27:50.557Z,61.24
2023-05-19T10:28:53.827Z,61.36
2023-05-19T10:29:59.958Z,60.45
2023-05-19T10:31:06.666Z,60.64
2023-05-19T10:32:16.237Z,60.70
2023-05-19T10:33:22.714Z,60.48
2023-05-19T10:34:52.293Z,60.65
2023-05-19T10:36:16.551Z,60.98
2023-05-19T10:37:29.306Z,60.90
2023-05-19T10:38:43.718Z,60.88
2023-05-19T10:39:49.282Z,60.91
2023-05-19T10:40:55.005Z,61.60
2023-05-19T10:42:25.087Z,61.75
2023-05-19T10:43:37.085Z,61.65
2023-05-19T10:45:10.906Z,62.01
2023-05-19T10:46:13.864Z,62.32
2023-05-19T10:47:26.834Z,62.02
2023-05-19T10:48:37.957Z,62.17
2023-05-19T10:49:41.274Z,62.45
2023-05-19T10:50:47.780Z,62.61
2023-05-19T10:51:52.450Z,62.72
2023-05-19T10:52:57.048Z,62.33
2023-05-19T10:54:03.321Z,62.07
2023-05-19T10:55:09.497Z,62.53
2023-05-19T10:56:12.985Z,62.87
2023-05-19T10:57:19.689Z,63.22
2023-05-19T10:58:50.706Z,62.48
2023-05-19T10:59:53.388Z,62.85
2023-05-19T11:01:02.061Z,62.77
2023-05-19T11:02:09.084Z,62.96
2023-05-19T11:03:19.286Z,63.21
2023-05-19T11:04:51.895Z,64.01
2023-05-19T11:06:14.610Z,63.85
2023-05-19T11:07:22.817Z,63.83
2023-05-19T11:08:35.654Z,64.07
2023-05-19T11:09:44.200Z,64.25
2023-05-19T11:10:46.998Z,63.90
2023-05-19T11:11:54.757Z,63.77
2023-05-19T11:13:00.604Z,63.31
2023-05-19T11:14:04.945Z,63.48
2023-05-19T11:15:10.689Z,63.46
2023-05-19T11:16:13.428Z,63.76
2023-05-19T11:17:16.892Z,63.98
2023-05-19T11:18:21.530Z,64.02
2023-05-19T11:19:35.914Z,63.99
2023-05-19T11:20:40.014Z,63.82
2023-05-19T11:21:47.785Z,63.75
2023-05-19T11:23:07.438Z,64.13
2023-05-19T11:24:11.025Z,63.61
2023-05-19T11:25:13.736Z,63.46
2023-05-19T11:26:16.552Z,64.38
2023-05-19T11:27:26.788Z,63.92
2023-05-19T11:28:31.476Z,64.28
2023-05-19T11:29:34.870Z,64.22
2023-05-19T11:30:37.957Z,64.29
2023-05-19T11:31:40.831Z,64.06
2023-05-19T11:32:44.918Z,63.70
2023-05-19T11:33:49.076Z,63.55
2023-05-19T11:34:52.237Z,62.95
2023-05-19T11:36:01.343Z,63.31
2023-05-19T11:37:04.847Z,63.04
2023-05-19T11:38:08.127Z,63.22
2023-05-19T11:39:12.092Z,63.14
2023-05-19T11:40:16.485Z,63.36
2023-05-19T11:41:20.769Z,63.20
2023-05-19T11:42:24.275Z,63.04
2023-05-19T11:43:27.324Z,63.28
2023-05-19T11:44:29.975Z,62.90
2023-05-19T11:45:33.743Z,63.39
2023-05-19T11:46:36.951Z,62.95
2023-05-19T11:47:56.471Z,63.22
2023-05-19T11:49:02.872Z,62.75
2023-05-19T11:50:05.797Z,62.65
2023-05-19T11:51:08.842Z,62.76
2023-05-19T11:52:11.810Z,62.32
2023-05-19T11:53:15.833Z,62.52
2023-05-19T11:54:19.789Z,62.47
2023-05-19T11:55:23.111Z,62.27
2023-05-19T11:56:25.794Z,62.61
2023-05-19T11:57:28.576Z,62.58
2023-05-19T11:58:31.669Z,62.44
2023-05-19T11:59:36.361Z,62.29
2023-05-19T12:00:43.941Z,62.43
2023-05-19T12:01:46.842Z,62.17
2023-05-19T12:02:49.641Z,62.55
2023-05-19T12:03:52.729Z,62.24
2023-05-19T12:04:56.148Z,62.26
2023-05-19T12:05:58.912Z,61.94
2023-05-19T12:07:01.625Z,62.25
2023-05-19T12:08:04.783Z,62.19
2023-05-19T12:09:08.335Z,62.14
2023-05-19T12:10:11.829Z,62.02
2023-05-19T12:11:15.191Z,62.01
2023-05-19T12:12:19.612Z,61.93
2023-05-19T12:13:23.424Z,62.12
2023-05-19T12:14:31.490Z,61.58
2023-05-19T12:15:34.386Z,62.00
2023-05-19T12:16:37.517Z,61.73
2023-05-19T12:17:40.523Z,61.29
2023-05-19T12:18:43.305Z,61.46
2023-05-19T12:19:47.633Z,61.47
2023-05-19T12:20:50.516Z,61.49
2023-05-19T12:21:54.265Z,61.23
2023-05-19T12:22:57.068Z,61.57
2023-05-19T12:24:00.789Z,61.28
2023-05-19T12:25:05.369Z,61.42
2023-05-19T12:26:08.817Z,61.15
2023-05-19T12:27:24.319Z,61.36
2023-05-19T12:28:30.238Z,61.09
2023-05-19T12:29:33.235Z,61.03
2023-05-19T12:30:36.144Z,61.18
2023-05-19T12:31:39.176Z,61.18
2023-05-19T12:32:41.968Z,60.72
2023-05-19T12:33:44.740Z,60.67
2023-05-19T12:34:48.007Z,60.99
2023-05-19T12:35:51.353Z,60.99
2023-05-19T12:36:54.074Z,60.53
2023-05-19T12:37:56.764Z,60.59
2023-05-19T12:38:59.731Z,60.57
2023-05-19T12:40:04.492Z,60.61
2023-05-19T12:41:07.631Z,60.99
2023-05-19T12:42:12.978Z,60.35
2023-05-19T12:43:23.105Z,60.43
2023-05-19T12:44:26.183Z,60.72
2023-05-19T12:45:29.194Z,60.48
2023-05-19T12:46:34.020Z,60.37
2023-05-19T12:47:37.370Z,60.19
2023-05-19T12:48:44.928Z,60.46
2023-05-19T12:49:57.666Z,60.45
2023-05-19T12:51:00.428Z,59.98
2023-05-19T12:52:11.909Z,60.16
2023-05-19T12:53:16.742Z,59.83
2023-05-19T12:54:22.579Z,60.10
2023-05-19T12:55:26.075Z,59.84
2023-05-19T12:56:28.806Z,59.95
2023-05-19T12:57:34.287Z,59.85
2023-05-19T12:58:38.051Z,59.90
2023-05-19T12:59:43.233Z,60.12
2023-05-19T13:00:50.989Z,60.19
2023-05-19T13:01:59.921Z,59.72
2023-05-19T13:03:07.697Z,60.14
2023-05-19T13:04:10.775Z,59.84
2023-05-19T13:05:14.196Z,60.12
2023-05-19T13:06:16.927Z,59.60
2023-05-19T13:07:21.256Z,59.69
2023-05-19T13:08:25.285Z,59.75
2023-05-19T13:09:28.416Z,59.26
2023-05-19T13:10:32.184Z,59.39
2023-05-19T13:11:35.659Z,59.09
2023-05-19T13:12:38.302Z,59.46
2023-05-19T13:13:41.016Z,58.81
2023-05-19T13:14:44.196Z,58.94
2023-05-19T13:15:49.394Z,59.29
2023-05-19T13:16:52.164Z,59.18
2023-05-19T13:17:55.801Z,58.71
2023-05-19T13:18:58.918Z,58.95
2023-05-19T13:20:01.803Z,58.67
2023-05-19T13:21:04.832Z,58.89
2023-05-19T13:22:07.586Z,58.72
2023-05-19T13:23:14.730Z,58.29
2023-05-19T13:24:17.613Z,58.36
2023-05-19T13:25:20.324Z,58.80
2023-05-19T13:26:24.038Z,58.19
2023-05-19T13:27:26.794Z,58.35
2023-05-19T13:28:29.962Z,58.42
2023-05-19T13:29:32.641Z,58.05
2023-05-19T13:30:37.040Z,57.99
2023-05-19T13:31:39.936Z,57.77
2023-05-19T13:32:43.058Z,57.87
2023-05-19T13:33:45.803Z,58.12
2023-05-19T13:34:48.549Z,57.69
2023-05-19T13:35:51.199Z,57.59
2023-05-19T13:36:53.930Z,57.53
2023-05-19T13:37:56.798Z,57.90
2023-05-19T13:38:59.549Z,58.07
2023-05-19T13:40:02.556Z,57.94
2023-05-19T13:41:05.211Z,57.71
2023-05-19T13:42:07.892Z,57.51
2023-05-19T13:43:10.643Z,57.78
2023-05-19T13:44:13.271Z,57.59
2023-05-19T13:45:16.135Z,57.34
2023-05-19T13:46:22.148Z,57.32
2023-05-19T13:47:29.472Z,57.47
2023-05-19T13:48:32.248Z,57.67
2023-05-19T13:49:34.958Z,57.59
2023-05-19T13:50:37.654Z,57.40
2023-05-19T13:51:43.239Z,57.34
2023-05-19T13:52:45.937Z,57.55
2023-05-19T13:53:48.628Z,57.54
2023-05-19T13:54:51.435Z,57.58